Time;durP1;ratioP1;P1;durP2;ratioP2;P2;SDS_P1;SDS_P2;PMS_P1;PMS_P2;Temp;Humidity;BMP_temperature;BMP_pressure;BME280_temperature;BME280_humidity;BME280_pressure;Samples;Min_cycle;Max_cycle;Signal;HPM_P1;HPM_P2
2021/11/18 00:01:11;;;;;;;37.93;23.55;;;;;;;5.79;76.99;94970.11;828343;71;29916;-78
2021/11/18 00:16:08;;;;;;;36.48;23.80;;;;;;;5.78;76.87;94968.55;833879;71;29408;-77
2021/11/18 00:31:10;;;;;;;39.80;23.70;;;;;;;5.83;77.06;94971.19;827384;71;29579;-76
2021/11/18 00:46:13;;;;;;;36.28;23.80;;;;;;;5.91;76.99;94960.08;827834;71;31624;-78
2021/11/18 01:01:15;;;;;;;38.23;23.57;;;;;;;5.92;76.60;94949.91;833257;71;32206;-76
2021/11/18 01:16:10;;;;;;;41.20;22.90;;;;;;;5.78;76.85;94946.42;827945;71;29777;-76
2021/11/18 01:31:09;;;;;;;39.48;22.58;;;;;;;5.68;77.04;94968.94;828537;71;29712;-80
2021/11/18 01:46:11;;;;;;;36.17;21.35;;;;;;;5.56;77.36;94947.76;828004;71;30374;-79
2021/11/18 02:01:10;;;;;;;36.48;22.07;;;;;;;5.47;77.48;94954.41;834331;71;29829;-77
2021/11/18 02:16:15;;;;;;;35.92;21.02;;;;;;;5.41;78.13;94950.98;826953;71;33263;-77
2021/11/18 02:31:25;;;;;;;37.50;21.95;;;;;;;5.39;77.65;94962.64;825157;71;32852;-78
2021/11/18 02:46:12;;;;;;;30.80;20.02;;;;;;;5.26;77.23;94973.44;827962;71;31061;-76
2021/11/18 03:16:09;;;;;;;32.03;19.85;;;;;;;5.02;78.60;94977.03;827775;71;28690;-77
2021/11/18 03:31:11;;;;;;;30.77;18.55;;;;;;;5.11;77.86;94977.91;831947;71;29282;-77
2021/11/18 03:46:11;;;;;;;29.80;18.75;;;;;;;4.94;77.67;94988.36;827616;71;28712;-79
2021/11/18 04:01:09;;;;;;;24.07;16.67;;;;;;;5.07;78.56;94989.33;829777;71;28746;-82
2021/11/18 04:16:15;;;;;;;31.82;19.42;;;;;;;5.28;77.96;94971.37;826711;71;32237;-77
2021/11/18 04:31:12;;;;;;;30.12;18.23;;;;;;;5.34;77.63;94968.59;826789;71;28988;-76
2021/11/18 04:46:12;;;;;;;37.20;20.08;;;;;;;5.20;78.02;94979.08;833385;71;30108;-79
2021/11/18 05:01:14;;;;;;;32.53;19.80;;;;;;;5.24;78.32;94975.49;833420;71;31007;-78
2021/11/18 05:16:12;;;;;;;37.13;21.35;;;;;;;5.29;78.66;94980.25;833627;71;29776;-79
2021/11/18 05:31:15;;;;;;;36.85;21.40;;;;;;;5.60;78.51;95017.81;802311;74;31771;-82
2021/11/18 05:46:14;;;;;;;34.15;19.60;;;;;;;5.95;77.52;95028.38;827846;71;31202;-84
2021/11/18 06:01:13;;;;;;;38.85;23.27;;;;;;;6.91;75.53;95039.10;825175;71;30845;-83
2021/11/18 06:16:15;;;;;;;38.23;24.18;;;;;;;7.73;73.17;95039.55;827891;71;31709;-85
2021/11/18 06:31:40;;;;;;;34.08;22.07;;;;;;;8.04;71.27;95052.19;822827;71;31880;-87
2021/11/18 06:46:32;;;;;;;32.38;22.60;;;;;;;8.08;70.52;95057.16;834671;71;31841;-85
2021/11/18 07:01:15;;;;;;;36.83;23.87;;;;;;;7.97;69.73;95063.42;793712;74;31877;-86
2021/11/18 07:16:35;;;;;;;39.20;25.97;;;;;;;7.27;72.21;95074.56;805304;73;32923;-86
2021/11/18 07:31:32;;;;;;;44.90;28.38;;;;;;;7.55;71.96;95089.09;827965;71;32812;-86
2021/11/18 07:46:29;;;;;;;50.52;31.93;;;;;;;7.81;71.36;95088.70;819382;70;32789;-88
2021/11/18 08:01:27;;;;;;;52.62;33.10;;;;;;;8.00;70.85;95098.16;825767;70;32657;-83
2021/11/18 08:16:31;;;;;;;60.75;37.48;;;;;;;8.12;70.66;95094.03;835226;71;32637;-87
2021/11/18 08:31:16;;;;;;;53.35;32.80;;;;;;;8.27;70.52;95111.05;828933;71;32253;-84
2021/11/18 08:46:16;;;;;;;37.93;25.70;;;;;;;8.36;70.34;95123.91;830624;71;31987;-88
2021/11/18 09:16:10;;;;;;;35.15;20.43;;;;;;;8.60;69.62;95124.78;795247;74;30526;-88
2021/11/18 09:31:16;;;;;;;29.07;19.55;;;;;;;8.69;70.15;95132.90;827659;71;29774;-85
2021/11/18 09:47:10;;;;;;;;;;;;;;;;;;;;;
2021/11/18 10:01:38;;;;;;;30.65;19.02;;;;;;;8.93;70.96;95105.71;830452;71;29719;-87
2021/11/18 10:16:30;;;;;;;31.75;19.60;;;;;;;8.99;71.72;95092.36;795364;72;32861;-85
2021/11/18 10:31:27;;;;;;;36.05;22.13;;;;;;;8.82;71.17;123554.15;834684;71;31111;-86
2021/11/18 10:46:21;;;;;;;30.20;19.35;;;;;;;;;;826128;71;32765;-85
2021/11/18 11:01:18;;;;;;;24.60;16.48;;;;;;;9.68;67.69;95067.11;829447;71;32686;-87
2021/11/18 11:16:56;;;;;;;26.73;18.48;;;;;;;10.22;65.53;95046.16;827742;71;32735;-86
2021/11/18 11:31:26;;;;;;;29.98;21.07;;;;;;;10.32;62.78;95053.22;827657;71;32820;-83
2021/11/18 11:46:24;;;;;;;27.95;18.67;;;;;;;10.35;61.61;95029.59;828468;71;31996;-86
2021/11/18 12:01:43;;;;;;;29.02;19.95;;;;;;;9.76;62.20;95039.81;826758;71;32795;-87
2021/11/18 12:16:46;;;;;;;33.75;21.25;;;;;;;9.57;63.45;95048.80;819108;71;32814;-87
2021/11/18 12:31:27;;;;;;;33.83;21.12;;;;;;;9.23;63.93;95002.27;831115;71;31495;-85
2021/11/18 13:01:29;;;;;;;30.95;21.10;;;;;;;9.54;63.05;95033.61;825712;71;31984;-88
2021/11/18 13:16:36;;;;;;;33.78;21.40;;;;;;;9.62;59.95;95055.33;802036;71;32927;-83
2021/11/18 13:31:32;;;;;;;32.25;20.82;;;;;;;9.65;58.98;95059.77;823748;71;33568;-84
2021/11/18 13:46:32;;;;;;;32.30;22.00;;;;;;;9.52;58.84;95058.51;795197;73;32870;-86
2021/11/18 14:01:25;;;;;;;34.78;22.10;;;;;;;9.23;59.42;95081.35;827315;71;33230;-86
2021/11/18 14:16:38;;;;;;;32.67;19.85;;;;;;;8.95;60.12;95097.85;825468;71;32608;-87
2021/11/18 14:31:44;;;;;;;31.25;19.95;;;;;;;8.77;61.08;160963.97;830206;71;32737;-86
2021/11/18 14:46:44;;;;;;;34.35;20.97;;;;;;;8.68;61.78;95118.23;835937;71;32723;-85
2021/11/18 15:16:36;;;;;;;37.50;23.32;;;;;;;8.42;63.51;95084.98;833663;71;32744;-76
2021/11/18 15:31:34;;;;;;;34.45;20.82;;;;;;;8.40;64.26;95101.42;864844;68;33400;-78
2021/11/18 15:46:17;;;;;;;40.28;23.62;;;;;;;8.39;64.87;95099.87;833277;71;32742;-79
2021/11/18 16:01:20;;;;;;;44.70;26.97;;;;;;;8.30;66.69;95121.53;834566;71;32726;-78
2021/11/18 16:16:46;;;;;;;48.78;28.35;;;;;;;;;;828594;71;27080;-77
2021/11/18 16:46:24;;;;;;;53.92;30.20;;;;;;;8.15;70.17;95158.35;827546;71;32801;-79
2021/11/18 17:01:18;;;;;;;33.92;21.45;;;;;;;8.07;70.35;95155.41;827016;71;33213;-80
2021/11/18 17:16:19;;;;;;;37.73;23.12;;;;;;;7.97;70.66;95170.02;827836;71;30870;-78
2021/11/18 17:46:20;;;;;;;24.32;16.48;;;;;;;7.88;71.14;95211.25;831441;70;31790;-78
2021/11/18 18:01:24;;;;;;;26.65;17.35;;;;;;;7.75;71.97;95224.23;827907;71;30715;-79
2021/11/18 18:16:12;;;;;;;25.50;16.97;;;;;;;7.61;72.87;95219.43;827668;71;29207;-78
2021/11/18 18:31:14;;;;;;;27.40;18.25;;;;;;;7.50;73.22;95219.59;829427;70;28305;-82
2021/11/18 18:46:17;;;;;;;24.05;16.15;;;;;;;7.45;73.63;95244.37;828161;71;31825;-79
2021/11/18 19:01:26;;;;;;;15.80;11.30;;;;;;;7.36;73.69;95255.77;827284;71;31774;-80
2021/11/18 19:16:16;;;;;;;15.90;11.53;;;;;;;7.25;73.90;95252.81;827757;71;30805;-78
2021/11/18 19:46:14;;;;;;;26.55;14.73;;;;;;;7.08;76.07;95264.14;829570;71;30174;-80
2021/11/18 20:01:11;;;;;;;16.57;11.10;;;;;;;7.02;75.61;95255.47;829062;71;28696;-80
2021/11/18 20:16:16;;;;;;;15.83;11.10;;;;;;;6.96;75.06;95273.41;828568;71;31725;-78
2021/11/18 20:31:27;;;;;;;13.85;9.53;;;;;;;7.00;74.05;95270.59;825724;71;31738;-79
2021/11/18 20:46:09;;;;;;;13.50;9.10;;;;;;;6.94;73.22;95263.73;827865;71;29616;-78
2021/11/18 21:16:17;;;;;;;15.23;9.83;;;;;;;6.72;72.87;95259.84;833834;71;31738;-78
2021/11/18 21:31:13;;;;;;;11.68;8.95;;;;;;;6.69;73.02;95253.02;826444;71;30502;-77
2021/11/18 21:46:21;;;;;;;13.03;9.55;;;;;;;6.57;73.06;95245.35;826768;71;32548;-77
2021/11/18 22:01:23;;;;;;;13.43;9.50;;;;;;;6.53;72.92;95241.12;827467;71;31799;-78
2021/11/18 22:16:21;;;;;;;12.90;9.93;;;;;;;6.52;72.73;95246.58;827150;71;32247;-78
2021/11/18 22:31:32;;;;;;;14.60;10.08;;;;;;;6.53;72.25;95248.95;828456;71;31991;-80
2021/11/18 22:46:14;;;;;;;15.68;9.80;;;;;;;6.58;71.78;95265.16;829102;71;32816;-78
2021/11/18 23:01:30;;;;;;;13.50;9.35;;;;;;;6.67;71.66;95261.60;833252;71;32270;-79
2021/11/18 23:16:15;;;;;;;14.78;10.35;;;;;;;6.69;71.62;95276.00;827859;71;29278;-76
2021/11/18 23:31:12;;;;;;;17.20;10.58;;;;;;;6.66;72.08;95260.82;828009;71;28672;-79
2021/11/18 23:46:09;;;;;;;15.32;11.35;;;;;;;6.67;72.47;95248.56;829646;71;29488;-80
